Time;durP1;ratioP1;P1;durP2;ratioP2;P2;SDS_P1;SDS_P2;PMS_P1;PMS_P2;Temp;Humidity;BMP_temperature;BMP_pressure;BME280_temperature;BME280_humidity;BME280_pressure;Samples;Min_cycle;Max_cycle;Signal;HPM_P1;HPM_P2
2022/04/12 00:00:34;;;;;;;4.90;3.92;;;;;;;12.24;64.12;101775.84;5046117;28;20112;-82
2022/04/12 00:03:00;;;;;;;4.45;3.65;;;;;;;12.20;64.50;101777.34;5045895;28;20471;-82
2022/04/12 00:05:25;;;;;;;4.65;3.58;;;;;;;12.30;64.45;101786.69;5034401;28;20079;-82
2022/04/12 00:07:51;;;;;;;3.92;3.53;;;;;;;12.15;64.37;101757.78;5025658;28;20030;-82
2022/04/12 00:10:17;;;;;;;4.63;3.20;;;;;;;12.03;64.50;101737.00;5014662;28;20029;-81
2022/04/12 00:12:43;;;;;;;5.75;3.90;;;;;;;12.23;64.51;101774.91;5048302;28;20037;-81
2022/04/12 00:15:09;;;;;;;4.07;3.67;;;;;;;12.30;64.64;101789.31;5033697;28;20080;-82
2022/04/12 00:20:20;;;;;;;4.50;3.75;;;;;;;12.17;64.80;101767.59;5036176;28;20004;-82
2022/04/12 00:22:46;;;;;;;4.10;3.50;;;;;;;12.22;64.50;101787.09;5049735;28;20033;-82
2022/04/12 00:25:12;;;;;;;4.97;4.00;;;;;;;12.18;64.66;101768.47;5033970;28;20490;-82
2022/04/12 00:27:39;;;;;;;4.22;3.55;;;;;;;12.19;64.65;101770.28;5027493;28;20057;-82
2022/04/12 00:30:07;;;;;;;3.88;3.47;;;;;;;12.24;64.81;101774.13;5014261;28;20055;-82
2022/04/12 00:32:33;;;;;;;4.07;3.45;;;;;;;12.25;64.37;101780.25;5042201;28;20041;-83
2022/04/12 00:34:59;;;;;;;4.78;3.88;;;;;;;12.27;64.82;101786.50;5031964;28;20402;-82
2022/04/12 00:37:25;;;;;;;3.95;3.55;;;;;;;12.18;64.68;101765.88;5030496;28;20087;-82
2022/04/12 00:39:51;;;;;;;4.07;3.67;;;;;;;12.07;64.74;101749.47;5032046;28;20041;-82
2022/04/12 00:42:16;;;;;;;3.80;3.25;;;;;;;12.11;64.71;101751.47;5032694;28;20427;-83
2022/04/12 00:44:42;;;;;;;3.78;3.38;;;;;;;12.27;64.62;101776.91;5031826;28;20037;-83
2022/04/12 00:47:07;;;;;;;3.85;3.22;;;;;;;12.31;64.27;101780.63;5031472;28;20491;-82
2022/04/12 00:49:34;;;;;;;3.55;3.20;;;;;;;12.22;64.51;101768.75;5018401;28;20480;-81
2022/04/12 00:52:00;;;;;;;3.90;3.40;;;;;;;12.11;64.55;101759.34;5040858;28;20080;-82
2022/04/12 00:54:27;;;;;;;3.63;3.33;;;;;;;12.16;64.59;101757.91;5014414;28;20116;-81
2022/04/12 00:56:53;;;;;;;3.88;3.40;;;;;;;12.09;64.24;101755.72;5014865;28;20471;-84
2022/04/12 00:59:19;;;;;;;5.22;3.75;;;;;;;12.29;64.56;101784.88;5036482;28;20486;-84
2022/04/12 01:01:45;;;;;;;4.10;3.55;;;;;;;12.20;64.35;101772.09;5024761;28;20041;-84
2022/04/12 01:04:10;;;;;;;4.75;3.53;;;;;;;12.27;64.49;101792.63;5000911;28;20034;-83
2022/04/12 01:06:37;;;;;;;3.92;3.50;;;;;;;11.86;64.21;101708.81;5046729;28;20033;-83
2022/04/12 01:09:05;;;;;;;3.92;3.50;;;;;;;12.30;64.17;101784.97;5040936;28;20245;-84
2022/04/12 01:11:33;;;;;;;3.83;3.42;;;;;;;12.09;64.58;101752.19;5019605;28;20039;-84
2022/04/12 01:14:00;;;;;;;4.72;3.50;;;;;;;12.09;64.37;101750.47;5033074;28;20056;-84
2022/04/12 01:16:26;;;;;;;3.85;3.45;;;;;;;12.13;64.46;101755.09;5032984;28;20418;-83
2022/04/12 01:18:51;;;;;;;4.40;3.60;;;;;;;11.82;64.46;101710.31;5033085;28;20036;-83
2022/04/12 01:21:17;;;;;;;3.30;3.00;;;;;;;12.09;64.59;101760.06;5049032;28;20457;-83
2022/04/12 01:24:02;;;;;;;4.20;3.47;;;;;;;12.19;64.72;101773.81;5021639;28;20526;-83
2022/04/12 01:26:28;;;;;;;4.32;3.17;;;;;;;11.64;64.57;101678.66;5016214;28;20032;-83
2022/04/12 01:28:55;;;;;;;;;;;;;;;12.26;64.33;101777.72;5015538;28;20021;-83
2022/04/12 01:31:28;;;;;;;3.88;3.30;;;;;;;11.94;64.44;101736.41;5012758;28;19913;-83
2022/04/12 01:33:54;;;;;;;3.50;3.13;;;;;;;12.19;64.45;101781.69;5031106;28;20041;-83
2022/04/12 01:36:19;;;;;;;4.40;3.40;;;;;;;12.19;64.31;101784.31;5019268;28;20108;-84
2022/04/12 01:38:46;;;;;;;4.18;3.40;;;;;;;12.18;64.68;101784.19;5031952;28;20594;-83
2022/04/12 01:41:11;;;;;;;4.30;3.70;;;;;;;11.98;64.42;101760.28;5013161;28;20041;-83
2022/04/12 01:43:37;;;;;;;4.10;3.20;;;;;;;11.86;64.70;101738.50;5030770;28;20472;-83
2022/04/12 01:46:06;;;;;;;3.72;3.25;;;;;;;12.15;64.39;101790.16;5012678;28;20087;-83
2022/04/12 01:48:31;;;;;;;3.88;3.35;;;;;;;11.95;64.36;101759.16;5018654;28;20037;-84
2022/04/12 01:50:57;;;;;;;5.60;3.30;;;;;;;12.01;64.69;101770.03;5031758;28;20037;-84
2022/04/12 01:53:23;;;;;;;4.07;3.33;;;;;;;11.98;64.63;101768.13;5031909;28;20037;-84
2022/04/12 01:55:48;;;;;;;4.53;3.50;;;;;;;11.96;64.63;101761.88;5049689;28;20029;-83
2022/04/12 01:58:14;;;;;;;3.92;3.42;;;;;;;11.94;64.60;101760.88;5036248;28;20503;-83
2022/04/12 02:00:42;;;;;;;4.47;3.10;;;;;;;12.01;64.56;101772.63;5033528;28;20481;-83
2022/04/12 02:03:09;;;;;;;4.25;3.58;;;;;;;12.13;64.78;101790.88;5035734;28;20112;-83
2022/04/12 02:05:34;;;;;;;3.85;3.22;;;;;;;12.09;65.01;101789.75;5016951;28;20044;-83
2022/04/12 02:08:01;;;;;;;3.65;3.20;;;;;;;12.11;64.71;101793.38;5029003;28;20037;-83
2022/04/12 02:10:57;;;;;;;3.47;3.10;;;;;;;12.14;64.81;101790.94;5016572;28;20513;-83
2022/04/12 02:13:45;;;;;;;3.53;3.10;;;;;;;12.13;64.83;101790.88;5046499;28;20041;-83
2022/04/12 02:16:17;;;;;;;3.83;3.30;;;;;;;11.76;64.54;101730.84;5036187;28;20036;-83
2022/04/12 02:18:43;;;;;;;4.57;3.60;;;;;;;11.75;64.47;101726.44;5053901;28;20029;-83
2022/04/12 02:21:09;;;;;;;3.50;3.15;;;;;;;12.00;64.58;101769.13;5053692;28;20045;-82
2022/04/12 02:23:38;;;;;;;3.65;3.35;;;;;;;11.53;64.58;101687.50;5053715;28;20387;-83
2022/04/12 02:26:03;;;;;;;4.15;3.25;;;;;;;11.89;64.60;101762.28;5019371;28;20529;-83
2022/04/12 02:28:29;;;;;;;3.95;2.97;;;;;;;11.87;64.80;101769.09;5016326;28;20056;-83
2022/04/12 02:30:55;;;;;;;4.28;3.17;;;;;;;11.60;64.79;101688.00;5016337;28;20068;-83
2022/04/12 02:33:21;;;;;;;4.93;3.10;;;;;;;11.96;64.76;101760.97;5033958;28;20461;-83
2022/04/12 02:35:46;;;;;;;3.90;3.30;;;;;;;11.94;64.46;101747.78;5033889;28;20457;-82
2022/04/12 02:38:15;;;;;;;3.50;3.15;;;;;;;11.52;64.77;101696.19;5032466;28;20033;-82
2022/04/12 02:40:40;;;;;;;3.95;3.08;;;;;;;11.95;64.98;101772.25;5033687;28;20133;-82
2022/04/12 02:43:06;;;;;;;4.35;3.28;;;;;;;12.06;64.86;101789.53;5034127;28;20137;-80
2022/04/12 02:45:32;;;;;;;4.30;3.20;;;;;;;12.07;65.07;101783.50;5033998;28;20041;-82
2022/04/12 02:47:57;;;;;;;3.92;3.25;;;;;;;11.94;64.95;101754.75;5039399;28;20547;-82
2022/04/12 02:50:23;;;;;;;4.00;3.20;;;;;;;11.94;64.82;101762.59;5038854;28;20072;-82
2022/04/12 02:52:49;;;;;;;4.07;3.10;;;;;;;11.70;64.47;101720.88;5044546;28;20044;-82
2022/04/12 02:55:14;;;;;;;3.80;3.40;;;;;;;12.03;64.34;101778.88;5016184;28;20025;-82
2022/04/12 02:57:40;;;;;;;4.20;3.40;;;;;;;12.12;64.49;101789.94;5045367;28;20422;-81
2022/04/12 03:00:06;;;;;;;4.50;3.30;;;;;;;12.06;64.39;101791.25;5053416;28;20071;-84
2022/04/12 03:02:32;;;;;;;3.40;3.10;;;;;;;11.95;64.86;101773.13;5035740;28;20021;-83
2022/04/12 03:04:58;;;;;;;3.55;3.10;;;;;;;12.05;64.70;101802.56;5019214;28;20396;-83
2022/04/12 03:07:23;;;;;;;3.10;2.85;;;;;;;12.01;64.72;101797.09;5052939;28;20109;-83
2022/04/12 03:09:50;;;;;;;3.28;2.90;;;;;;;11.99;64.86;101783.00;5041377;28;20025;-84
2022/04/12 03:12:16;;;;;;;3.60;2.85;;;;;;;12.05;64.72;101807.78;5015010;28;20032;-85
2022/04/12 03:14:41;;;;;;;3.85;3.20;;;;;;;11.96;64.56;101790.69;5033099;28;20029;-85
2022/04/12 03:17:08;;;;;;;3.60;3.13;;;;;;;11.91;64.89;101776.38;5033273;28;20036;-83
2022/04/12 03:19:33;;;;;;;4.32;2.92;;;;;;;11.89;64.60;101766.59;5015408;28;20038;-84
2022/04/12 03:21:59;;;;;;;5.43;3.35;;;;;;;11.96;64.68;101788.06;5015174;28;20028;-84
2022/04/12 03:24:24;;;;;;;3.93;3.20;;;;;;;11.98;64.51;101793.38;5032862;28;20029;-84
2022/04/12 03:26:50;;;;;;;4.40;3.00;;;;;;;11.81;64.57;101772.22;5032908;28;20276;-82
2022/04/12 03:29:16;;;;;;;5.18;3.22;;;;;;;11.68;64.70;101753.91;5015127;28;20784;-81
2022/04/12 03:31:42;;;;;;;3.38;3.08;;;;;;;11.64;64.46;101749.31;5032667;28;20034;-81
2022/04/12 03:34:08;;;;;;;4.18;3.22;;;;;;;12.04;64.60;101821.66;5042123;28;20083;-83
2022/04/12 03:36:34;;;;;;;4.45;3.20;;;;;;;11.94;64.77;101810.63;5053112;28;20037;-82
2022/04/12 03:39:01;;;;;;;3.97;3.20;;;;;;;11.94;64.69;101822.81;5034941;28;20422;-82
2022/04/12 03:41:27;;;;;;;3.70;3.28;;;;;;;11.96;64.69;101829.94;5020782;28;20045;-81
2022/04/12 03:43:52;;;;;;;3.80;3.17;;;;;;;11.80;64.62;101793.06;5032601;28;20499;-82
2022/04/12 03:46:18;;;;;;;3.17;2.75;;;;;;;11.97;64.44;101823.88;5022937;28;20037;-82
2022/04/12 03:48:45;;;;;;;3.67;2.90;;;;;;;11.93;64.64;101832.34;5032413;28;20026;-83
2022/04/12 03:51:12;;;;;;;4.70;3.15;;;;;;;11.84;64.81;101825.59;5006641;28;20118;-82
2022/04/12 03:53:37;;;;;;;3.92;3.08;;;;;;;11.95;64.78;101837.69;5026068;28;20037;-81
2022/04/12 03:56:07;;;;;;;3.65;3.10;;;;;;;11.61;64.67;101786.59;5028198;28;20025;-82
2022/04/12 03:58:36;;;;;;;4.22;2.95;;;;;;;11.86;64.57;101826.59;5034165;28;20155;-82
2022/04/12 04:01:03;;;;;;;3.15;2.85;;;;;;;11.92;65.01;101841.00;5042155;28;20509;-82
2022/04/12 04:03:29;;;;;;;3.72;3.25;;;;;;;11.94;64.89;101843.75;5021424;28;20036;-82
2022/04/12 04:05:55;;;;;;;3.42;3.10;;;;;;;11.92;64.81;101846.25;5032446;28;20033;-82
2022/04/12 04:08:21;;;;;;;;;;;;;;;11.96;64.59;101842.13;5052576;28;20039;-82
2022/04/12 04:10:46;;;;;;;3.70;3.20;;;;;;;11.65;64.83;101808.66;5019736;28;19917;-82
2022/04/12 04:13:15;;;;;;;3.50;3.20;;;;;;;11.40;64.70;101762.53;5032301;28;20116;-82
2022/04/12 04:15:40;;;;;;;3.50;3.20;;;;;;;11.77;64.71;101835.66;5029610;28;20037;-82
2022/04/12 04:18:10;;;;;;;4.57;3.13;;;;;;;11.86;64.74;101853.66;5025887;28;20040;-82
2022/04/12 04:20:36;;;;;;;6.53;3.50;;;;;;;11.81;65.05;101866.44;5041759;28;20103;-82
2022/04/12 04:23:02;;;;;;;3.25;2.95;;;;;;;11.81;64.81;101853.38;5033658;28;20490;-83
2022/04/12 04:25:28;;;;;;;3.30;3.00;;;;;;;11.84;64.89;101864.84;5034216;28;20025;-83
2022/04/12 04:27:55;;;;;;;3.30;3.00;;;;;;;11.78;65.06;101857.47;5031795;28;20053;-82
2022/04/12 04:30:21;;;;;;;3.67;3.20;;;;;;;11.37;64.85;101785.91;5026766;28;20025;-82
2022/04/12 04:32:47;;;;;;;3.42;3.00;;;;;;;11.77;64.71;101858.31;5028412;28;20052;-81
2022/04/12 04:35:13;;;;;;;3.20;2.90;;;;;;;11.82;65.10;101863.00;5025893;28;20025;-82
2022/04/12 04:37:46;;;;;;;3.60;2.97;;;;;;;11.83;65.06;101869.16;5026325;28;20100;-82
2022/04/12 04:40:20;;;;;;;3.63;3.05;;;;;;;11.82;64.87;101876.09;5021261;28;20084;-81
2022/04/12 04:42:46;;;;;;;3.20;2.65;;;;;;;11.82;64.86;101870.88;5026424;28;20028;-82
2022/04/12 04:45:13;;;;;;;3.17;2.88;;;;;;;11.78;64.83;101874.06;5011787;28;20048;-83
2022/04/12 04:48:03;;;;;;;3.75;3.10;;;;;;;11.75;65.16;101867.75;5050524;28;20449;-82
2022/04/12 04:50:30;;;;;;;3.53;3.13;;;;;;;11.76;64.91;101877.41;5023631;28;20060;-82
2022/04/12 04:52:57;;;;;;;3.38;3.03;;;;;;;11.76;65.12;101878.31;5031731;28;20510;-83
2022/04/12 04:55:23;;;;;;;3.63;3.13;;;;;;;11.80;65.07;101884.66;5031936;28;20117;-83
2022/04/12 04:57:53;;;;;;;4.05;3.35;;;;;;;11.76;64.99;101883.53;5030404;28;20496;-84
2022/04/12 05:00:19;;;;;;;3.53;2.95;;;;;;;11.79;64.99;101894.22;5051202;28;20025;-83
2022/04/12 05:02:45;;;;;;;;;;;;;;;11.81;65.06;101891.72;5034273;28;20024;-84
2022/04/12 05:05:15;;;;;;;3.28;2.78;;;;;;;11.76;64.89;101890.50;5033445;28;19987;-91
2022/04/12 05:07:47;;;;;;;2.83;2.60;;;;;;;11.60;65.44;101873.78;5018419;28;20029;-91
2022/04/12 05:10:15;;;;;;;3.20;2.88;;;;;;;11.68;65.08;101882.09;5017510;28;20017;-88
2022/04/12 05:12:41;;;;;;;2.65;2.45;;;;;;;11.72;65.28;101894.59;5017577;28;20038;-88
2022/04/12 05:15:07;;;;;;;3.25;2.95;;;;;;;11.45;65.12;101850.88;5033622;28;20079;-87
2022/04/12 05:17:32;;;;;;;3.90;3.08;;;;;;;11.27;65.17;101825.31;5017315;28;20522;-87
2022/04/12 05:19:58;;;;;;;3.75;2.90;;;;;;;11.45;65.25;101859.66;5033837;28;20037;-88
2022/04/12 05:22:24;;;;;;;3.75;3.10;;;;;;;11.60;65.25;101883.34;5017081;28;20037;-87
2022/04/12 05:24:50;;;;;;;3.35;3.05;;;;;;;11.49;65.16;101871.22;5033607;28;20021;-87
2022/04/12 05:27:16;;;;;;;4.78;2.90;;;;;;;11.72;65.05;101907.69;5033575;28;20441;-87
2022/04/12 05:29:42;;;;;;;3.55;3.10;;;;;;;11.54;65.13;101881.19;5033277;28;20025;-87
2022/04/12 05:32:09;;;;;;;3.25;2.80;;;;;;;11.43;64.90;101855.09;5033465;28;20494;-86
2022/04/12 05:34:36;;;;;;;3.20;2.90;;;;;;;11.53;65.18;101895.06;5033320;28;20029;-87
2022/04/12 05:37:03;;;;;;;3.17;2.70;;;;;;;11.37;65.31;101869.59;5042772;28;20025;-87
2022/04/12 05:39:28;;;;;;;;;;;;;;;11.70;65.38;101924.09;5050146;28;20032;-85
2022/04/12 05:41:54;;;;;;;3.67;2.85;;;;;;;11.19;65.33;101831.72;5049394;28;20003;-85
2022/04/12 05:44:20;;;;;;;5.00;2.92;;;;;;;11.42;65.47;101875.13;5050355;28;20107;-85
2022/04/12 05:46:45;;;;;;;3.42;2.83;;;;;;;11.67;65.67;101914.31;5049592;28;20490;-85
2022/04/12 05:49:11;;;;;;;2.90;2.60;;;;;;;11.56;65.30;101904.84;5048523;28;20083;-85
2022/04/12 05:51:36;;;;;;;3.50;2.80;;;;;;;11.71;65.31;101911.13;5049005;28;20033;-88
2022/04/12 05:54:02;;;;;;;4.45;2.90;;;;;;;11.36;65.34;101859.91;5032715;28;20414;-88
2022/04/12 05:56:28;;;;;;;3.28;2.75;;;;;;;11.62;65.53;101913.13;5048432;28;20055;-87
2022/04/12 05:58:53;;;;;;;2.85;2.55;;;;;;;11.62;65.74;101913.13;5048517;28;20139;-88
2022/04/12 06:01:19;;;;;;;3.03;2.70;;;;;;;11.63;65.32;101914.03;5049532;28;20033;-88
2022/04/12 06:03:45;;;;;;;3.70;3.30;;;;;;;11.51;65.52;101882.69;5032949;28;20429;-87
2022/04/12 06:06:14;;;;;;;3.55;2.97;;;;;;;11.66;65.34;101906.38;5049575;28;20043;-89
2022/04/12 06:08:42;;;;;;;3.15;2.85;;;;;;;11.54;65.61;101894.28;5033971;28;20489;-89
2022/04/12 06:11:07;;;;;;;3.05;2.72;;;;;;;11.46;65.61;101881.47;5033350;28;20064;-89
2022/04/12 06:13:34;;;;;;;3.20;2.90;;;;;;;11.38;65.62;101867.88;5049843;28;20056;-89
2022/04/12 06:15:59;;;;;;;3.20;2.90;;;;;;;11.46;65.38;101890.22;5033486;28;20024;-89
2022/04/12 06:18:29;;;;;;;3.38;2.70;;;;;;;11.49;65.61;101881.69;5033409;28;20029;-89
2022/04/12 06:20:55;;;;;;;4.07;3.03;;;;;;;11.41;65.67;101871.63;5032431;28;20086;-89
2022/04/12 06:23:22;;;;;;;3.20;2.90;;;;;;;11.63;65.60;101914.91;5033413;28;20025;-89
2022/04/12 06:25:48;;;;;;;3.78;3.03;;;;;;;11.49;65.78;101879.97;5049830;28;20032;-89
2022/04/12 06:28:15;;;;;;;3.35;2.67;;;;;;;11.49;65.75;101882.56;5049650;28;20029;-88
2022/04/12 06:30:40;;;;;;;3.08;2.60;;;;;;;11.19;65.77;101837.84;5049768;28;20033;-89
2022/04/12 06:33:07;;;;;;;3.72;2.92;;;;;;;11.48;65.42;101883.38;5049555;28;20508;-88
2022/04/12 06:35:32;;;;;;;4.10;2.90;;;;;;;11.58;65.64;101892.78;5049673;28;20032;-88
2022/04/12 06:37:58;;;;;;;2.90;2.60;;;;;;;11.48;65.30;101878.16;5024371;28;20029;-87
2022/04/12 06:40:25;;;;;;;3.40;2.80;;;;;;;11.54;65.37;101883.81;5060002;28;20033;-87
2022/04/12 06:42:52;;;;;;;3.30;2.80;;;;;;;11.35;65.63;101847.66;5037836;28;20103;-87
2022/04/12 06:45:19;;;;;;;3.08;2.75;;;;;;;11.49;65.43;101885.19;5016771;28;20041;-87
2022/04/12 06:47:54;;;;;;;3.30;3.00;;;;;;;11.63;65.50;101911.41;5035138;28;20021;-87
2022/04/12 06:50:21;;;;;;;3.00;2.70;;;;;;;11.59;65.62;101913.78;5019673;28;20031;-88
2022/04/12 06:52:46;;;;;;;3.38;2.85;;;;;;;11.53;65.46;101895.06;5054048;28;20056;-88
2022/04/12 06:55:13;;;;;;;3.42;2.90;;;;;;;11.26;65.57;101839.19;5036564;28;20509;-87
2022/04/12 06:57:39;;;;;;;2.95;2.67;;;;;;;11.69;65.17;101919.69;5036517;28;20017;-86
2022/04/12 07:00:07;;;;;;;3.17;2.88;;;;;;;11.34;65.75;101860.63;5035655;28;20461;-86
2022/04/12 07:02:32;;;;;;;3.25;2.80;;;;;;;11.55;65.64;101903.03;5035556;28;20391;-87
2022/04/12 07:04:58;;;;;;;3.28;2.85;;;;;;;11.59;65.83;101916.41;5035654;28;20029;-86
2022/04/12 07:07:24;;;;;;;4.45;3.22;;;;;;;11.38;65.50;101887.06;5019008;28;20045;-86
2022/04/12 07:09:50;;;;;;;3.45;3.00;;;;;;;11.55;65.67;101921.34;5053327;28;20035;-85
2022/04/12 07:12:15;;;;;;;3.03;2.72;;;;;;;11.43;65.94;101903.13;5035627;28;20033;-85
2022/04/12 07:14:41;;;;;;;3.25;2.80;;;;;;;11.34;66.25;101892.00;5035754;28;20403;-85
2022/04/12 07:17:07;;;;;;;3.00;2.70;;;;;;;11.55;65.74;101921.34;5053643;28;20029;-85
2022/04/12 07:19:32;;;;;;;3.40;2.72;;;;;;;11.24;65.89;101864.31;5035436;28;20028;-85
2022/04/12 07:21:58;;;;;;;3.08;2.75;;;;;;;11.55;66.05;101921.34;5053267;28;20348;-85
2022/04/12 07:24:24;;;;;;;3.47;2.83;;;;;;;11.43;66.08;101896.94;5035631;28;20036;-85
2022/04/12 07:26:49;;;;;;;3.70;2.85;;;;;;;11.37;65.76;101884.38;5053025;28;20031;-85
2022/04/12 07:29:15;;;;;;;3.47;2.70;;;;;;;11.31;66.38;101878.72;5035481;28;20482;-85
2022/04/12 07:31:41;;;;;;;2.90;2.53;;;;;;;11.02;65.95;101832.25;5053199;28;20025;-85
2022/04/12 07:34:09;;;;;;;3.83;2.90;;;;;;;11.48;66.11;101912.16;5035402;28;20035;-85
2022/04/12 07:36:39;;;;;;;4.30;2.67;;;;;;;11.47;66.01;101904.22;5035576;28;20479;-85
2022/04/12 07:39:06;;;;;;;3.78;2.97;;;;;;;11.61;65.98;101924.38;5035723;28;20052;-85
2022/04/12 07:41:32;;;;;;;3.03;2.60;;;;;;;11.61;65.91;101917.44;5035557;28;20024;-84
2022/04/12 07:43:57;;;;;;;3.92;2.97;;;;;;;11.63;65.78;101919.25;5035093;28;20025;-86
2022/04/12 07:46:23;;;;;;;4.13;3.20;;;;;;;11.56;65.72;101915.31;5052797;28;20108;-86
2022/04/12 07:48:49;;;;;;;3.47;2.90;;;;;;;11.60;65.93;101931.31;5053184;28;20463;-85
2022/04/12 07:51:15;;;;;;;3.58;2.97;;;;;;;11.42;65.95;101893.44;5035062;28;20025;-85
2022/04/12 07:53:40;;;;;;;3.85;3.00;;;;;;;11.48;65.56;101895.56;5035073;28;20498;-87
2022/04/12 07:56:06;;;;;;;3.25;2.72;;;;;;;11.45;65.26;101879.66;5034754;28;20071;-87
2022/04/12 07:58:32;;;;;;;5.18;2.70;;;;;;;11.58;65.91;101909.38;5018049;28;20032;-86
2022/04/12 08:00:57;;;;;;;3.30;3.00;;;;;;;11.50;65.65;101900.09;5018183;28;20115;-86
2022/04/12 08:03:23;;;;;;;3.83;3.08;;;;;;;11.56;66.25;101915.31;5034984;28;20090;-86
2022/04/12 08:05:49;;;;;;;3.00;2.70;;;;;;;11.33;65.85;101864.94;5052595;28;20033;-86
2022/04/12 08:08:14;;;;;;;2.97;2.67;;;;;;;11.38;65.71;101887.06;5034866;28;20509;-86
2022/04/12 08:10:40;;;;;;;4.03;2.90;;;;;;;11.51;65.83;101888.81;5018098;28;20035;-86
2022/04/12 08:13:06;;;;;;;4.22;2.88;;;;;;;11.57;65.75;101894.47;5052465;28;20027;-85
2022/04/12 08:15:31;;;;;;;4.47;2.72;;;;;;;11.55;65.87;101889.94;5034601;28;20036;-85
2022/04/12 08:17:57;;;;;;;3.45;2.80;;;;;;;11.57;65.81;101889.25;5017895;28;20494;-86
2022/04/12 08:20:23;;;;;;;2.92;2.63;;;;;;;11.64;65.62;101902.75;5039920;28;20422;-85
2022/04/12 08:22:49;;;;;;;3.13;2.65;;;;;;;11.67;65.88;101919.56;5052064;28;20037;-85
2022/04/12 08:25:15;;;;;;;3.30;2.70;;;;;;;11.68;65.63;101913.50;5051971;28;20041;-85
2022/04/12 08:27:40;;;;;;;4.70;3.10;;;;;;;11.65;65.69;101907.19;5050885;28;20042;-85
2022/04/12 08:30:07;;;;;;;2.95;2.65;;;;;;;11.34;65.87;101852.78;5050934;28;20472;-86
2022/04/12 08:32:35;;;;;;;;;;;;;;;11.64;65.88;101911.53;5051293;28;20033;-83
2022/04/12 08:35:05;;;;;;;3.55;2.75;;;;;;;11.32;65.96;101851.75;5050838;28;19963;-85
2022/04/12 08:37:31;;;;;;;4.32;3.35;;;;;;;11.39;65.76;101862.75;5051890;28;20086;-85
2022/04/12 08:39:56;;;;;;;4.10;3.05;;;;;;;11.38;65.99;101867.88;5033735;28;20029;-85
2022/04/12 08:42:22;;;;;;;3.30;3.00;;;;;;;11.41;65.65;101865.47;5033832;28;20040;-85
2022/04/12 08:44:49;;;;;;;4.55;3.03;;;;;;;11.58;65.82;101896.31;5033971;28;20025;-84
2022/04/12 08:47:16;;;;;;;3.83;3.00;;;;;;;11.60;65.82;101888.56;5017335;28;20528;-84
2022/04/12 08:49:42;;;;;;;4.45;3.40;;;;;;;11.68;65.91;101904.75;5033832;28;20383;-84
2022/04/12 08:52:11;;;;;;;3.45;3.00;;;;;;;11.68;65.73;101907.38;5033872;28;20033;-85
2022/04/12 08:54:41;;;;;;;4.65;3.13;;;;;;;11.68;66.05;101904.75;5017416;28;20413;-85
2022/04/12 08:57:08;;;;;;;3.47;2.83;;;;;;;11.57;66.37;101889.25;5033731;28;20048;-85
2022/04/12 08:59:35;;;;;;;3.78;3.10;;;;;;;11.57;65.58;101883.09;5017072;28;20422;-86
2022/04/12 09:02:01;;;;;;;3.67;3.15;;;;;;;11.51;65.68;101867.00;5017183;28;20029;-86
2022/04/12 09:04:27;;;;;;;3.92;3.20;;;;;;;11.51;66.05;101874.84;5051437;28;20047;-86
2022/04/12 09:06:54;;;;;;;5.45;3.20;;;;;;;11.60;66.11;101886.84;5051243;28;20494;-86
2022/04/12 09:09:23;;;;;;;3.38;2.80;;;;;;;11.68;65.57;101899.53;5032964;28;20032;-86
2022/04/12 09:12:02;;;;;;;3.67;3.20;;;;;;;11.46;65.97;101865.78;5033582;28;20047;-86
2022/04/12 09:14:37;;;;;;;3.80;3.28;;;;;;;11.68;65.65;101894.28;5051312;28;20100;-85
2022/04/12 09:17:13;;;;;;;3.58;3.10;;;;;;;11.70;65.81;101905.78;5033497;28;20047;-85
2022/04/12 09:19:49;;;;;;;3.75;3.20;;;;;;;11.67;65.86;101896.00;5033060;28;20063;-85
2022/04/12 09:22:17;;;;;;;3.78;2.95;;;;;;;11.71;65.68;101891.91;5016849;28;20040;-85
2022/04/12 09:24:47;;;;;;;5.75;3.03;;;;;;;11.69;65.79;101886.56;5016898;28;20058;-85
2022/04/12 09:27:16;;;;;;;3.90;3.40;;;;;;;11.68;65.71;101883.84;5033231;28;20025;-85
2022/04/12 09:30:01;;;;;;;3.42;3.13;;;;;;;11.69;65.87;101893.50;5033343;28;20182;-85
2022/04/12 09:32:30;;;;;;;4.53;3.45;;;;;;;11.67;66.08;101896.00;5051178;28;20140;-86
2022/04/12 09:34:56;;;;;;;3.75;3.13;;;;;;;11.68;66.28;101889.06;5033223;28;20021;-86
2022/04/12 09:37:29;;;;;;;4.05;3.30;;;;;;;11.56;65.85;101874.34;5033154;28;20033;-85
2022/04/12 09:40:04;;;;;;;5.68;3.50;;;;;;;11.66;66.33;101883.72;5050917;28;20029;-85
2022/04/12 09:42:51;;;;;;;5.25;3.17;;;;;;;11.68;65.96;101881.22;5032891;28;20414;-85
2022/04/12 09:45:33;;;;;;;3.38;3.00;;;;;;;11.69;65.84;101883.94;5050985;28;20040;-85
2022/04/12 09:48:04;;;;;;;4.10;3.20;;;;;;;11.68;66.23;101882.09;5033393;28;20107;-85
2022/04/12 09:50:31;;;;;;;4.80;3.13;;;;;;;11.66;66.05;101880.19;5032791;28;20067;-85
2022/04/12 09:53:02;;;;;;;4.28;3.28;;;;;;;11.66;66.42;101880.19;5033001;28;20029;-85
2022/04/12 09:55:49;;;;;;;3.80;3.15;;;;;;;11.43;66.10;101834.19;5033337;28;20063;-85
2022/04/12 09:58:17;;;;;;;4.38;3.20;;;;;;;11.68;65.88;101879.50;5033239;28;20501;-85
2022/04/12 10:00:47;;;;;;;3.58;3.25;;;;;;;11.50;66.16;101855.63;5050695;28;20021;-85
2022/04/12 10:03:15;;;;;;;4.18;3.40;;;;;;;11.57;66.34;101870.03;5033247;28;20110;-86
2022/04/12 10:05:42;;;;;;;4.75;3.40;;;;;;;11.69;66.17;101878.72;5032580;28;20458;-85
2022/04/12 10:08:14;;;;;;;5.93;3.60;;;;;;;11.72;65.67;101883.22;5032833;28;20054;-85
2022/04/12 10:10:43;;;;;;;4.88;3.28;;;;;;;11.45;65.71;101824.72;5050849;28;20108;-87
2022/04/12 10:13:10;;;;;;;4.63;3.20;;;;;;;11.56;65.96;101853.44;5032790;28;20072;-87
2022/04/12 10:15:37;;;;;;;4.55;3.50;;;;;;;11.61;66.11;101865.09;5033079;28;20060;-87
2022/04/12 10:18:03;;;;;;;4.68;3.40;;;;;;;11.68;66.25;101879.50;5032972;28;20029;-87
2022/04/12 10:20:29;;;;;;;4.85;3.42;;;;;;;11.45;66.20;101843.97;5050465;28;20396;-87
2022/04/12 10:22:56;;;;;;;5.85;3.65;;;;;;;11.62;66.55;101868.66;5035663;28;20037;-87
2022/04/12 10:25:23;;;;;;;5.07;3.60;;;;;;;11.66;66.45;101868.00;5036981;28;20120;-87
2022/04/12 10:27:51;;;;;;;5.88;3.50;;;;;;;11.42;66.21;101838.50;5036554;28;20033;-86
2022/04/12 10:30:17;;;;;;;4.50;3.60;;;;;;;11.67;66.54;101879.41;5020107;28;20137;-86
2022/04/12 10:33:02;;;;;;;;;;;;;;;11.67;66.48;101889.88;5036769;28;20041;-86
2022/04/12 10:35:54;;;;;;;5.10;3.70;;;;;;;11.66;66.34;101881.09;5054396;28;19920;-86
2022/04/12 10:38:21;;;;;;;7.35;3.55;;;;;;;11.50;66.49;101854.72;5034685;28;20036;-86
2022/04/12 10:40:48;;;;;;;4.25;3.22;;;;;;;11.67;66.30;101874.19;5019049;28;20034;-86
2022/04/12 10:43:20;;;;;;;4.50;3.15;;;;;;;11.66;66.24;101868.00;5018070;28;20614;-86
2022/04/12 10:45:51;;;;;;;4.22;3.28;;;;;;;11.47;66.52;101834.50;4999451;28;20112;-86
2022/04/12 10:48:24;;;;;;;4.05;3.17;;;;;;;11.67;66.36;101872.47;5015564;28;20025;-85
2022/04/12 10:50:55;;;;;;;4.63;3.50;;;;;;;11.65;66.45;101860.09;5032313;28;20026;-86
2022/04/12 10:53:36;;;;;;;4.10;2.97;;;;;;;11.71;66.62;101861.41;5033339;28;20025;-85
2022/04/12 10:56:08;;;;;;;4.68;3.50;;;;;;;11.63;66.32;101846.00;5016871;28;20701;-86
2022/04/12 10:58:34;;;;;;;4.88;3.42;;;;;;;11.68;66.26;101863.78;5032940;28;20024;-86
2022/04/12 11:01:01;;;;;;;3.50;3.17;;;;;;;11.78;66.06;101878.41;5032734;28;20033;-85
2022/04/12 11:03:47;;;;;;;;;;;;;;;11.76;66.34;101877.41;5016645;28;20052;-86
2022/04/12 11:06:46;;;;;;;3.95;3.13;;;;;;;11.77;66.27;101880.13;5033639;28;19913;-86
2022/04/12 11:09:17;;;;;;;4.05;3.35;;;;;;;11.61;66.52;101853.72;4985181;28;20037;-85
2022/04/12 11:11:48;;;;;;;4.88;3.70;;;;;;;11.74;66.39;101871.16;5016135;28;20577;-86
2022/04/12 11:14:32;;;;;;;4.65;3.30;;;;;;;11.76;66.11;101880.91;5033882;28;20026;-86
2022/04/12 11:17:08;;;;;;;4.88;3.33;;;;;;;11.71;66.45;101864.03;5032369;28;20494;-86
2022/04/12 11:19:44;;;;;;;6.38;3.80;;;;;;;11.59;66.45;101848.38;5032225;28;20445;-86
2022/04/12 11:22:15;;;;;;;4.28;3.20;;;;;;;11.79;66.17;101867.16;5032477;28;20036;-85
2022/04/12 11:24:41;;;;;;;4.95;3.22;;;;;;;11.78;66.57;101867.94;5015787;28;20033;-85
2022/04/12 11:27:11;;;;;;;6.38;3.80;;;;;;;11.78;66.14;101863.59;5015649;28;20109;-86
2022/04/12 11:29:42;;;;;;;4.22;3.25;;;;;;;11.78;66.46;101863.59;5016029;28;20071;-87
2022/04/12 11:32:09;;;;;;;4.43;3.38;;;;;;;11.67;66.62;101841.06;5033129;28;20033;-85